Time;durP1;ratioP1;P1;durP2;ratioP2;P2;SDS_P1;SDS_P2;PMS_P1;PMS_P2;Temp;Humidity;BMP_temperature;BMP_pressure;BME280_temperature;BME280_humidity;BME280_pressure;Samples;Min_cycle;Max_cycle;Signal;HPM_P1;HPM_P2
2024/03/18 00:00:31;;;;;;;88.33;24.60;;;10.60;99.90;;;;;;4932204;29;20311;-64
2024/03/18 00:02:59;;;;;;;89.83;24.60;;;10.60;99.90;;;;;;4930669;29;20654;-64
2024/03/18 00:05:26;;;;;;;91.47;25.10;;;10.50;99.90;;;;;;4931897;29;20515;-64
2024/03/18 00:07:54;;;;;;;100.80;25.00;;;10.50;99.90;;;;;;4931000;29;20256;-64
2024/03/18 00:10:21;;;;;;;84.97;24.57;;;10.40;99.90;;;;;;4925719;29;20603;-64
2024/03/18 00:12:48;;;;;;;95.20;24.93;;;10.40;99.90;;;;;;4928491;29;20315;-64
2024/03/18 00:15:17;;;;;;;88.63;25.20;;;10.40;99.90;;;;;;4927096;29;20311;-64
2024/03/18 00:17:44;;;;;;;80.97;25.13;;;10.40;99.90;;;;;;4931180;29;20224;-64
2024/03/18 00:20:13;;;;;;;81.70;25.23;;;10.40;99.90;;;;;;4912943;29;20315;-64
2024/03/18 00:22:42;;;;;;;97.13;25.97;;;10.40;99.90;;;;;;4923667;29;20220;-64
2024/03/18 00:25:11;;;;;;;90.97;24.83;;;10.30;99.90;;;;;;4925512;29;20235;-64
2024/03/18 00:27:38;;;;;;;86.33;24.60;;;10.30;99.90;;;;;;4927504;29;20311;-64
2024/03/18 00:30:10;;;;;;;85.23;25.37;;;10.20;99.90;;;;;;4925793;29;20231;-64
2024/03/18 00:32:41;;;;;;;102.37;26.00;;;10.20;99.90;;;;;;4927797;29;20223;-64
2024/03/18 00:35:10;;;;;;;82.80;23.80;;;10.20;99.90;;;;;;4926459;29;20310;-64
2024/03/18 00:37:39;;;;;;;85.13;24.37;;;10.10;99.90;;;;;;4947109;28;20220;-64
2024/03/18 00:40:08;;;;;;;69.50;21.37;;;10.00;99.90;;;;;;4929502;29;20229;-64
2024/03/18 00:42:35;;;;;;;95.50;22.37;;;10.00;99.90;;;;;;4930268;29;20774;-63
2024/03/18 00:45:04;;;;;;;66.40;21.43;;;10.00;99.90;;;;;;4923660;29;20370;-64
2024/03/18 00:47:33;;;;;;;86.53;23.43;;;9.90;99.90;;;;;;4928818;29;20213;-63
2024/03/18 00:50:02;;;;;;;77.43;22.80;;;9.90;99.90;;;;;;4920382;29;20221;-64
2024/03/18 00:52:29;;;;;;;77.83;22.10;;;9.90;99.90;;;;;;4939882;28;20225;-62
2024/03/18 00:54:57;;;;;;;72.23;21.40;;;9.90;99.90;;;;;;4921303;29;20627;-65
2024/03/18 00:57:24;;;;;;;129.43;23.73;;;9.90;99.90;;;;;;4928266;29;20229;-65
2024/03/18 00:59:52;;;;;;;91.67;23.53;;;9.80;99.90;;;;;;4929799;29;20472;-63
2024/03/18 01:02:19;;;;;;;74.13;20.10;;;9.80;99.90;;;;;;4928442;29;20714;-62
2024/03/18 01:04:48;;;;;;;78.33;21.90;;;9.80;99.90;;;;;;4927714;29;20239;-65
2024/03/18 01:07:16;;;;;;;85.33;22.50;;;9.80;99.90;;;;;;4930285;29;20267;-65
2024/03/18 01:09:46;;;;;;;71.40;21.80;;;9.90;99.90;;;;;;4924185;29;20225;-65
2024/03/18 01:12:14;;;;;;;78.27;23.07;;;9.90;99.90;;;;;;4915347;29;20239;-65
2024/03/18 01:14:41;;;;;;;72.70;22.53;;;10.00;99.90;;;;;;4916668;29;20221;-65
2024/03/18 01:17:08;;;;;;;74.47;21.33;;;10.00;99.90;;;;;;4927836;29;20221;-65
2024/03/18 01:19:37;;;;;;;68.13;21.13;;;10.00;99.90;;;;;;4922521;29;20231;-65
2024/03/18 01:22:04;;;;;;;71.27;21.43;;;10.00;99.90;;;;;;4927065;29;20653;-65
2024/03/18 01:24:33;;;;;;;70.10;21.97;;;10.00;99.90;;;;;;4924860;29;20220;-65
2024/03/18 01:27:00;;;;;;;81.03;23.90;;;10.00;99.90;;;;;;4913565;29;20865;-65
2024/03/18 01:29:28;;;;;;;70.53;20.43;;;10.00;99.90;;;;;;4927603;29;20217;-64
2024/03/18 01:31:56;;;;;;;76.20;22.80;;;9.90;99.90;;;;;;4929414;29;20220;-64
2024/03/18 01:34:24;;;;;;;79.50;24.47;;;9.90;99.90;;;;;;4929446;29;20252;-65
2024/03/18 01:36:51;;;;;;;82.33;23.97;;;9.90;99.90;;;;;;4919195;29;20246;-64
2024/03/18 01:39:20;;;;;;;87.37;25.23;;;9.90;99.90;;;;;;4909209;29;20331;-65
2024/03/18 01:41:49;;;;;;;94.60;25.60;;;9.90;99.90;;;;;;4925408;29;21555;-65
2024/03/18 01:44:16;;;;;;;105.30;26.00;;;9.90;99.90;;;;;;4923654;29;20238;-64
2024/03/18 01:46:43;;;;;;;96.13;26.53;;;9.90;99.90;;;;;;4927660;29;20308;-65
2024/03/18 01:49:14;;;;;;;98.10;25.70;;;9.90;99.90;;;;;;4911577;29;20954;-65
2024/03/18 01:51:41;;;;;;;89.27;22.73;;;9.90;99.90;;;;;;4929909;29;20221;-65
2024/03/18 01:54:10;;;;;;;92.10;24.83;;;9.80;99.90;;;;;;4927521;29;20303;-65
2024/03/18 01:56:37;;;;;;;89.83;24.23;;;9.80;99.90;;;;;;4924387;29;20221;-65
2024/03/18 01:59:06;;;;;;;92.87;23.57;;;9.80;99.90;;;;;;4928850;29;20307;-64
2024/03/18 02:01:34;;;;;;;85.10;23.87;;;9.70;99.90;;;;;;4923045;29;20714;-64
2024/03/18 02:04:09;;;;;;;90.40;24.67;;;9.70;99.90;;;;;;4930239;29;20587;-65
2024/03/18 02:06:38;;;;;;;93.50;24.30;;;9.70;99.90;;;;;;4928011;29;20239;-64
2024/03/18 02:09:05;;;;;;;94.50;23.17;;;9.70;99.90;;;;;;4926962;29;20224;-66
2024/03/18 02:11:32;;;;;;;88.03;23.30;;;9.70;99.90;;;;;;4927971;29;20216;-65
2024/03/18 02:14:00;;;;;;;79.90;23.03;;;9.60;99.90;;;;;;4928415;29;20225;-64
2024/03/18 02:16:31;;;;;;;85.80;24.03;;;9.60;99.90;;;;;;4926019;29;20247;-65
2024/03/18 02:18:58;;;;;;;79.33;22.63;;;9.60;99.90;;;;;;4924918;29;20275;-65
2024/03/18 02:21:26;;;;;;;83.20;23.30;;;9.60;99.90;;;;;;4925759;29;20228;-64
2024/03/18 02:23:55;;;;;;;74.90;23.10;;;9.60;99.90;;;;;;4922559;29;20279;-65
2024/03/18 02:26:22;;;;;;;76.80;24.20;;;9.70;99.90;;;;;;4928345;29;20259;-65
2024/03/18 02:28:51;;;;;;;82.50;24.47;;;9.70;99.90;;;;;;4923693;29;20228;-65
2024/03/18 02:31:20;;;;;;;85.27;25.80;;;9.70;99.90;;;;;;4928091;29;20668;-65
2024/03/18 02:33:47;;;;;;;77.10;25.20;;;9.70;99.90;;;;;;4927054;29;20591;-65
2024/03/18 02:36:18;;;;;;;93.07;25.40;;;9.70;99.90;;;;;;4924576;29;20228;-64
2024/03/18 02:38:46;;;;;;;105.87;26.07;;;9.70;99.90;;;;;;4922178;29;20248;-64
2024/03/18 02:41:14;;;;;;;92.93;25.67;;;9.70;99.90;;;;;;4924430;29;20820;-65
2024/03/18 02:43:42;;;;;;;86.17;25.40;;;9.70;99.90;;;;;;4926359;29;20232;-64
2024/03/18 02:46:09;;;;;;;95.87;26.30;;;9.70;99.90;;;;;;4931287;29;20260;-64
2024/03/18 02:48:37;;;;;;;91.70;25.87;;;9.70;99.90;;;;;;4929945;29;20695;-65
2024/03/18 02:51:06;;;;;;;85.90;25.27;;;9.60;99.90;;;;;;4926644;29;20233;-65
2024/03/18 02:53:32;;;;;;;91.47;26.40;;;9.60;99.90;;;;;;4931243;28;20217;-64
2024/03/18 02:56:00;;;;;;;95.13;25.87;;;9.60;99.90;;;;;;4926463;29;20315;-65
2024/03/18 02:58:28;;;;;;;91.20;25.97;;;9.60;99.90;;;;;;4929505;29;20236;-64
2024/03/18 03:00:55;;;;;;;98.67;25.50;;;9.60;99.90;;;;;;4930396;29;20224;-65
2024/03/18 03:03:23;;;;;;;90.77;25.43;;;9.50;99.90;;;;;;4933385;29;20387;-65
2024/03/18 03:05:50;;;;;;;86.63;23.50;;;9.50;99.90;;;;;;4928423;29;20235;-65
2024/03/18 03:08:20;;;;;;;89.97;23.80;;;9.40;99.90;;;;;;4946576;28;20259;-65
2024/03/18 03:10:47;;;;;;;89.37;24.20;;;9.40;99.90;;;;;;4931296;29;20239;-65
2024/03/18 03:13:15;;;;;;;89.20;24.73;;;9.40;99.90;;;;;;4930349;29;20232;-65
2024/03/18 03:15:44;;;;;;;93.83;24.97;;;9.40;99.90;;;;;;4932443;29;20240;-64
2024/03/18 03:18:15;;;;;;;88.33;25.33;;;9.40;99.90;;;;;;4934501;29;20228;-66
2024/03/18 03:20:41;;;;;;;90.97;26.53;;;9.40;99.90;;;;;;4945296;28;20244;-65
2024/03/18 03:23:11;;;;;;;92.63;26.17;;;9.50;99.90;;;;;;4931605;29;20748;-64
2024/03/18 03:25:43;;;;;;;97.53;26.13;;;9.60;99.90;;;;;;4929527;29;20232;-64
2024/03/18 03:28:10;;;;;;;95.67;25.57;;;9.60;99.90;;;;;;4931341;29;20248;-64
2024/03/18 03:30:38;;;;;;;94.07;25.67;;;9.70;99.90;;;;;;4931781;29;20354;-64
2024/03/18 03:33:06;;;;;;;95.53;25.57;;;9.70;99.90;;;;;;4931042;29;20229;-64
2024/03/18 03:35:34;;;;;;;109.47;28.27;;;9.70;99.90;;;;;;4929596;29;20221;-64
2024/03/18 03:38:02;;;;;;;85.60;24.80;;;9.70;99.90;;;;;;4929189;29;20236;-64
2024/03/18 03:40:30;;;;;;;97.90;26.60;;;9.60;99.90;;;;;;4930416;29;20231;-64
2024/03/18 03:42:57;;;;;;;95.37;27.07;;;9.60;99.90;;;;;;4930677;29;20232;-64
2024/03/18 03:45:26;;;;;;;104.20;27.20;;;9.60;99.90;;;;;;4931325;29;20223;-64
2024/03/18 03:47:54;;;;;;;108.27;26.77;;;9.60;99.90;;;;;;4930563;29;20225;-64
2024/03/18 03:50:23;;;;;;;81.07;24.50;;;9.60;99.90;;;;;;4928932;29;20575;-64
2024/03/18 03:52:50;;;;;;;108.70;27.07;;;9.60;99.90;;;;;;4928314;29;20713;-64
2024/03/18 03:55:18;;;;;;;96.90;26.13;;;9.70;99.90;;;;;;4928960;29;20244;-64
2024/03/18 03:57:47;;;;;;;99.17;26.73;;;9.70;99.90;;;;;;4933169;29;20229;-65
2024/03/18 04:00:15;;;;;;;107.47;27.23;;;9.70;99.90;;;;;;4912919;29;20236;-64
2024/03/18 04:02:43;;;;;;;115.33;27.10;;;9.70;99.90;;;;;;4931918;29;20217;-65
2024/03/18 04:05:10;;;;;;;100.00;25.93;;;9.70;99.90;;;;;;4931384;29;20213;-64
2024/03/18 04:07:39;;;;;;;107.73;28.13;;;9.70;99.90;;;;;;4932325;29;20228;-64
2024/03/18 04:10:07;;;;;;;109.27;27.00;;;9.70;99.90;;;;;;4929723;29;20231;-64
2024/03/18 04:12:34;;;;;;;122.87;28.37;;;9.70;99.90;;;;;;4931668;29;20232;-64
2024/03/18 04:15:02;;;;;;;109.93;27.10;;;9.70;99.90;;;;;;4932000;29;20269;-64
2024/03/18 04:17:30;;;;;;;119.70;27.60;;;9.80;99.90;;;;;;4930038;29;20220;-64
2024/03/18 04:19:58;;;;;;;114.87;27.50;;;9.80;99.90;;;;;;4929536;29;20223;-64
2024/03/18 04:22:26;;;;;;;113.83;27.87;;;9.80;99.90;;;;;;4929688;29;20256;-63
2024/03/18 04:24:55;;;;;;;134.10;29.47;;;9.80;99.90;;;;;;4932872;29;20229;-64
2024/03/18 04:27:23;;;;;;;119.90;29.37;;;9.90;99.90;;;;;;4932273;29;20228;-64
2024/03/18 04:29:50;;;;;;;136.37;28.80;;;9.90;99.90;;;;;;4932700;29;20234;-65
2024/03/18 04:32:20;;;;;;;111.33;27.87;;;9.90;99.90;;;;;;4932158;29;20212;-64
2024/03/18 04:34:47;;;;;;;125.97;29.47;;;9.90;99.90;;;;;;4928566;29;20304;-64
2024/03/18 04:37:14;;;;;;;130.37;27.57;;;9.90;99.90;;;;;;4928865;29;20311;-64
2024/03/18 04:39:42;;;;;;;130.47;27.40;;;9.80;99.90;;;;;;4931043;29;20228;-64
2024/03/18 04:42:11;;;;;;;128.33;27.80;;;9.80;99.90;;;;;;4931364;29;20654;-64
2024/03/18 04:44:38;;;;;;;118.17;27.37;;;9.70;99.90;;;;;;4947453;28;20267;-65
2024/03/18 04:47:05;;;;;;;149.87;27.00;;;9.70;99.90;;;;;;4928012;29;20709;-64
2024/03/18 04:49:33;;;;;;;130.40;27.50;;;9.70;99.90;;;;;;4930187;29;20263;-64
2024/03/18 04:52:00;;;;;;;137.47;27.13;;;9.70;99.90;;;;;;4925916;29;20225;-65
2024/03/18 04:54:28;;;;;;;135.57;28.30;;;9.70;99.90;;;;;;4931417;29;20301;-64
2024/03/18 04:56:55;;;;;;;134.07;27.80;;;9.60;99.90;;;;;;4925365;29;20228;-64
2024/03/18 04:59:24;;;;;;;116.47;25.93;;;9.60;99.90;;;;;;4928380;29;20231;-64
2024/03/18 05:01:52;;;;;;;134.33;26.67;;;9.60;99.90;;;;;;4923409;29;20321;-64
2024/03/18 05:04:19;;;;;;;134.60;26.97;;;9.60;99.90;;;;;;4926551;29;20236;-64
2024/03/18 05:06:47;;;;;;;128.20;26.03;;;9.60;99.90;;;;;;4924630;29;20234;-65
2024/03/18 05:09:14;;;;;;;112.47;24.50;;;9.50;99.90;;;;;;4927597;29;20846;-64
2024/03/18 05:11:41;;;;;;;114.30;24.73;;;9.50;99.90;;;;;;4926824;29;20775;-64
2024/03/18 05:14:09;;;;;;;107.77;25.67;;;9.50;99.90;;;;;;4927565;29;20267;-64
2024/03/18 05:16:39;;;;;;;134.67;25.87;;;9.50;99.90;;;;;;4926591;29;20316;-64
2024/03/18 05:19:06;;;;;;;127.27;25.47;;;9.50;99.90;;;;;;4927323;29;20838;-64
2024/03/18 05:21:34;;;;;;;124.50;24.80;;;9.50;99.90;;;;;;4928491;29;20315;-64
2024/03/18 05:24:02;;;;;;;121.77;24.90;;;9.50;99.90;;;;;;4914083;29;20232;-64
2024/03/18 05:26:29;;;;;;;127.10;24.73;;;9.40;99.90;;;;;;4931389;29;20315;-64
2024/03/18 05:28:56;;;;;;;119.60;22.90;;;9.40;99.90;;;;;;4934276;29;20742;-64
2024/03/18 05:31:24;;;;;;;124.00;24.10;;;9.40;99.90;;;;;;4929128;29;20231;-64
2024/03/18 05:33:53;;;;;;;124.93;23.47;;;9.30;99.90;;;;;;4924216;29;20230;-64
2024/03/18 05:36:20;;;;;;;125.00;23.53;;;9.30;99.90;;;;;;4929807;29;20220;-64
2024/03/18 05:38:47;;;;;;;114.77;23.53;;;9.20;99.90;;;;;;4927004;29;20236;-65
2024/03/18 05:41:15;;;;;;;115.37;22.83;;;9.10;99.90;;;;;;4942652;28;20283;-64
2024/03/18 05:43:42;;;;;;;108.47;22.33;;;9.10;99.90;;;;;;4927114;29;20232;-64
2024/03/18 05:46:11;;;;;;;111.63;23.10;;;9.00;99.90;;;;;;4926690;29;20221;-64
2024/03/18 05:48:39;;;;;;;97.03;21.23;;;9.00;99.90;;;;;;4927553;29;20220;-64
2024/03/18 05:51:07;;;;;;;117.73;22.30;;;9.00;99.90;;;;;;4926397;29;20319;-64
2024/03/18 05:53:35;;;;;;;103.70;21.50;;;9.00;99.90;;;;;;4923577;29;20208;-64
2024/03/18 05:56:03;;;;;;;118.20;23.00;;;8.90;99.90;;;;;;4923789;29;20226;-64
2024/03/18 05:58:30;;;;;;;97.57;20.57;;;8.90;99.90;;;;;;4926254;29;20251;-64
2024/03/18 06:00:58;;;;;;;92.10;19.90;;;9.00;99.90;;;;;;4928578;29;20656;-64
2024/03/18 06:03:26;;;;;;;97.57;19.73;;;8.90;99.90;;;;;;4909112;29;21028;-64
2024/03/18 06:05:54;;;;;;;105.80;20.20;;;8.90;99.90;;;;;;4925442;29;20250;-64
2024/03/18 06:08:23;;;;;;;113.40;21.07;;;8.80;99.90;;;;;;4927110;29;20215;-64
2024/03/18 06:10:50;;;;;;;98.43;20.13;;;8.90;99.90;;;;;;4925518;29;20311;-64
2024/03/18 06:13:17;;;;;;;94.77;19.53;;;8.90;99.90;;;;;;4930505;29;20236;-63
2024/03/18 06:15:45;;;;;;;86.77;18.27;;;9.00;99.90;;;;;;4924831;29;20296;-64
2024/03/18 06:18:12;;;;;;;85.33;19.07;;;9.20;99.90;;;;;;4909433;29;20263;-64
2024/03/18 06:20:42;;;;;;;82.20;19.43;;;9.30;99.90;;;;;;4932311;28;20308;-64
2024/03/18 06:23:10;;;;;;;80.30;19.13;;;9.40;99.90;;;;;;4930505;29;20248;-64
2024/03/18 06:25:57;;;;;;;86.17;17.93;;;9.40;99.90;;;;;;4931851;29;20224;-64
2024/03/18 06:28:25;;;;;;;76.83;17.70;;;9.40;99.90;;;;;;4932849;29;20228;-64
2024/03/18 06:30:53;;;;;;;83.37;18.97;;;9.50;99.90;;;;;;4932232;29;20216;-64
2024/03/18 06:33:21;;;;;;;88.73;19.40;;;9.50;99.90;;;;;;4928268;29;20691;-64
2024/03/18 06:35:49;;;;;;;86.30;20.10;;;9.50;99.90;;;;;;4928500;29;20228;-64
2024/03/18 06:38:16;;;;;;;90.03;20.20;;;9.50;99.90;;;;;;4927217;29;20227;-64
2024/03/18 06:40:45;;;;;;;90.47;21.13;;;9.60;99.90;;;;;;4926438;29;20232;-64
2024/03/18 06:43:12;;;;;;;94.73;24.50;;;9.60;99.90;;;;;;4887264;29;1212209;-64
2024/03/18 06:45:39;;;;;;;93.27;25.67;;;9.60;99.90;;;;;;4931331;29;20224;-64
2024/03/18 06:48:07;;;;;;;102.60;25.70;;;9.70;99.90;;;;;;4923655;29;20225;-63
2024/03/18 06:50:36;;;;;;;118.17;27.97;;;9.70;99.90;;;;;;4926326;29;20220;-63
2024/03/18 06:53:04;;;;;;;126.87;29.30;;;9.70;99.90;;;;;;4948081;28;20255;-64
2024/03/18 06:55:32;;;;;;;122.83;27.47;;;9.70;99.90;;;;;;4932894;29;20292;-63
2024/03/18 06:58:02;;;;;;;116.10;28.00;;;9.60;99.90;;;;;;4929991;29;20579;-63
2024/03/18 07:00:30;;;;;;;117.67;28.43;;;9.70;99.90;;;;;;4932638;29;20232;-64
2024/03/18 07:02:57;;;;;;;122.70;26.90;;;9.70;99.90;;;;;;4911014;29;20224;-64
2024/03/18 07:05:25;;;;;;;115.70;28.60;;;9.80;99.90;;;;;;4929718;29;20222;-63
2024/03/18 07:07:53;;;;;;;121.33;30.03;;;9.80;99.90;;;;;;4923646;29;20317;-63
2024/03/18 07:10:20;;;;;;;120.63;29.80;;;9.90;99.90;;;;;;4929276;29;21009;-63
2024/03/18 07:12:48;;;;;;;112.73;29.60;;;9.90;99.90;;;;;;4931946;29;20217;-63
2024/03/18 07:15:17;;;;;;;121.03;29.73;;;10.00;99.90;;;;;;4932706;29;20719;-63
2024/03/18 07:17:45;;;;;;;120.07;27.67;;;10.00;99.90;;;;;;4925716;29;20281;-63
2024/03/18 07:20:13;;;;;;;115.17;28.47;;;10.00;99.90;;;;;;4929835;29;20615;-63
2024/03/18 07:22:42;;;;;;;102.67;27.00;;;10.10;99.90;;;;;;4924817;29;20321;-64
2024/03/18 07:25:11;;;;;;;108.37;26.50;;;10.10;99.90;;;;;;4913155;29;20244;-63
2024/03/18 07:27:39;;;;;;;103.00;26.70;;;10.20;99.90;;;;;;4925743;29;20257;-66
2024/03/18 07:30:07;;;;;;;92.63;25.43;;;10.30;99.90;;;;;;4923877;29;20339;-65
2024/03/18 07:32:36;;;;;;;95.70;25.63;;;10.30;99.90;;;;;;4911864;29;20216;-65
2024/03/18 07:35:04;;;;;;;91.13;25.53;;;10.30;99.90;;;;;;4926286;29;20212;-63
2024/03/18 07:37:32;;;;;;;91.03;26.37;;;10.40;99.90;;;;;;4923951;29;20779;-63
2024/03/18 07:39:59;;;;;;;77.60;24.37;;;10.50;99.90;;;;;;4925914;29;20240;-65
2024/03/18 07:42:27;;;;;;;91.50;24.63;;;10.50;99.90;;;;;;4929045;29;20354;-65
2024/03/18 07:44:57;;;;;;;85.60;24.03;;;10.50;99.90;;;;;;4928525;29;20284;-65
2024/03/18 07:47:24;;;;;;;97.43;26.17;;;10.50;99.90;;;;;;4928290;29;20615;-65
2024/03/18 07:49:53;;;;;;;103.50;28.10;;;10.50;99.90;;;;;;4922401;29;20221;-65
2024/03/18 07:52:20;;;;;;;96.67;27.33;;;10.50;99.90;;;;;;4926531;29;21209;-65
2024/03/18 07:54:48;;;;;;;108.40;28.53;;;10.50;99.90;;;;;;4929912;29;20305;-65
2024/03/18 07:57:16;;;;;;;99.00;30.20;;;10.50;99.90;;;;;;4927279;29;20232;-65
2024/03/18 07:59:44;;;;;;;102.67;30.27;;;10.50;99.90;;;;;;4919830;29;20340;-65
2024/03/18 08:02:11;;;;;;;102.07;30.73;;;10.50;99.90;;;;;;4939220;28;20226;-65
2024/03/18 08:04:38;;;;;;;98.87;29.73;;;10.50;99.90;;;;;;4925457;28;20764;-65
2024/03/18 08:07:07;;;;;;;111.27;33.70;;;10.60;99.90;;;;;;4924186;29;20228;-65
2024/03/18 08:09:35;;;;;;;115.07;32.67;;;10.60;99.90;;;;;;4928643;29;20307;-66
2024/03/18 08:12:02;;;;;;;112.57;31.53;;;10.80;99.90;;;;;;4926606;29;20371;-65
2024/03/18 08:14:31;;;;;;;111.03;32.47;;;10.90;99.90;;;;;;4922090;29;20227;-63
2024/03/18 08:17:01;;;;;;;109.00;33.90;;;11.10;99.90;;;;;;4919593;29;20311;-63
2024/03/18 08:19:28;;;;;;;919.13;70.60;;;11.30;99.90;;;;;;4921177;29;20320;-62
2024/03/18 08:21:56;;;;;;;127.43;37.33;;;12.00;99.90;;;;;;4928325;29;20287;-64
2024/03/18 08:24:24;;;;;;;127.80;36.53;;;12.50;99.90;;;;;;4928353;29;20311;-64
2024/03/18 08:26:54;;;;;;;123.27;36.27;;;12.50;99.90;;;;;;4922080;29;20235;-64
2024/03/18 08:29:21;;;;;;;93.60;33.37;;;12.90;99.90;;;;;;4924977;29;20224;-64
2024/03/18 08:31:49;;;;;;;87.87;31.07;;;12.50;99.90;;;;;;4932376;29;20270;-64
2024/03/18 08:34:16;;;;;;;82.13;30.57;;;12.20;99.90;;;;;;4930315;29;20641;-64
2024/03/18 08:36:43;;;;;;;73.93;29.07;;;12.10;99.90;;;;;;4925883;29;20229;-64
2024/03/18 08:39:11;;;;;;;79.70;30.57;;;12.00;99.90;;;;;;4931380;29;20233;-64
2024/03/18 08:41:39;;;;;;;83.47;30.03;;;11.90;99.90;;;;;;4923356;29;20307;-64
2024/03/18 08:44:07;;;;;;;72.97;28.57;;;12.10;99.90;;;;;;4928473;29;20366;-64
2024/03/18 08:46:34;;;;;;;72.30;29.70;;;12.30;99.90;;;;;;4932087;29;20247;-64
2024/03/18 08:49:02;;;;;;;67.93;28.80;;;12.50;99.90;;;;;;4940463;28;20335;-65
2024/03/18 08:51:29;;;;;;;68.33;27.90;;;12.30;99.90;;;;;;4933295;29;20274;-64
2024/03/18 08:53:57;;;;;;;61.27;27.33;;;12.40;99.90;;;;;;4930187;29;20230;-64
2024/03/18 08:56:27;;;;;;;60.33;25.63;;;12.40;99.90;;;;;;4930339;29;20307;-64
2024/03/18 08:58:56;;;;;;;54.60;24.97;;;12.40;99.90;;;;;;4924687;29;20233;-64
2024/03/18 09:01:23;;;;;;;54.07;25.30;;;12.50;99.90;;;;;;4920939;29;20691;-65
2024/03/18 09:03:50;;;;;;;53.90;23.90;;;12.60;99.90;;;;;;4923053;29;20305;-65
2024/03/18 09:06:18;;;;;;;48.40;23.27;;;12.80;99.90;;;;;;4928491;29;20225;-64
2024/03/18 09:08:46;;;;;;;42.93;22.57;;;12.80;99.90;;;;;;4919443;29;20247;-64
2024/03/18 09:11:13;;;;;;;47.30;23.17;;;12.90;99.90;;;;;;4926638;29;20311;-65
2024/03/18 09:13:41;;;;;;;43.73;23.23;;;13.30;99.90;;;;;;4923716;29;20224;-65
2024/03/18 09:16:10;;;;;;;42.67;20.40;;;13.60;99.90;;;;;;4929580;29;20670;-65
2024/03/18 09:18:37;;;;;;;32.40;19.17;;;13.80;99.90;;;;;;4929636;29;20221;-65
2024/03/18 09:21:04;;;;;;;42.00;19.30;;;13.80;99.90;;;;;;4930281;29;20324;-65
2024/03/18 09:23:32;;;;;;;41.30;20.37;;;13.80;99.90;;;;;;4927594;29;20224;-65
2024/03/18 09:25:59;;;;;;;34.27;19.20;;;14.00;99.90;;;;;;4922080;29;20270;-65
2024/03/18 09:28:27;;;;;;;35.23;19.63;;;14.50;99.90;;;;;;4924774;29;20727;-65
2024/03/18 09:31:01;;;;;;;30.57;17.53;;;15.60;99.90;;;;;;4944878;28;20327;-65
2024/03/18 09:33:31;;;;;;;33.70;17.53;;;15.90;99.90;;;;;;4922523;29;20719;-65
2024/03/18 09:35:58;;;;;;;26.47;16.13;;;16.20;99.90;;;;;;4926893;29;20723;-65
2024/03/18 09:38:27;;;;;;;28.37;16.17;;;16.30;99.90;;;;;;4923758;29;20234;-65
2024/03/18 09:41:03;;;;;;;32.23;15.30;;;16.50;99.90;;;;;;4925002;29;20237;-65
2024/03/18 09:43:33;;;;;;;32.40;15.37;;;16.40;99.90;;;;;;4908202;29;20283;-65
2024/03/18 09:46:01;;;;;;;28.07;15.43;;;16.20;99.90;;;;;;4912574;29;20225;-65
2024/03/18 09:48:32;;;;;;;31.43;15.23;;;15.90;99.90;;;;;;4912526;29;20229;-66
2024/03/18 09:51:00;;;;;;;30.57;14.80;;;15.70;99.90;;;;;;4919058;29;20329;-65
2024/03/18 09:53:29;;;;;;;26.73;13.03;;;15.40;99.90;;;;;;4912015;28;20219;-65
2024/03/18 09:55:58;;;;;;;32.27;15.40;;;15.00;99.90;;;;;;4928704;29;20250;-66
2024/03/18 09:58:25;;;;;;;27.93;13.90;;;14.60;99.90;;;;;;4929807;29;20343;-66
2024/03/18 10:00:53;;;;;;;26.63;13.47;;;14.50;99.90;;;;;;4925600;29;20232;-65
2024/03/18 10:03:21;;;;;;;27.17;13.10;;;14.30;99.90;;;;;;4925232;29;20273;-66
2024/03/18 10:05:50;;;;;;;26.63;13.23;;;14.20;99.90;;;;;;4927437;29;20249;-65
2024/03/18 10:08:19;;;;;;;22.90;12.27;;;14.50;99.90;;;;;;4923875;29;20218;-65
2024/03/18 10:10:50;;;;;;;22.40;11.10;;;15.00;99.90;;;;;;4931657;29;20633;-66
2024/03/18 10:13:18;;;;;;;25.33;10.93;;;15.90;99.90;;;;;;4928964;29;20232;-66
2024/03/18 10:15:45;;;;;;;20.53;11.37;;;16.40;98.40;;;;;;4929037;29;20310;-66
2024/03/18 10:18:14;;;;;;;19.93;10.90;;;16.50;85.90;;;;;;4911141;29;20785;-65
2024/03/18 10:20:41;;;;;;;18.47;10.97;;;16.40;64.00;;;;;;4929094;29;20221;-65
2024/03/18 10:23:13;;;;;;;18.30;10.20;;;16.60;96.40;;;;;;4922714;29;20310;-66
2024/03/18 10:25:42;;;;;;;18.73;10.67;;;16.70;58.00;;;;;;4928766;29;20646;-65
2024/03/18 10:28:12;;;;;;;25.73;10.87;;;16.60;82.10;;;;;;4929773;29;20220;-65
2024/03/18 10:30:40;;;;;;;17.83;9.97;;;17.10;52.00;;;;;;4921409;29;20255;-65
2024/03/18 10:33:09;;;;;;;17.80;8.97;;;17.90;38.10;;;;;;4921477;29;20227;-65
2024/03/18 10:35:40;;;;;;;21.53;8.73;;;18.20;7.90;;;;;;4923723;29;20313;-65
2024/03/18 10:38:08;;;;;;;17.13;8.73;;;19.10;1.00;;;;;;4924652;29;20226;-66
2024/03/18 10:40:38;;;;;;;15.40;6.87;;;20.00;1.00;;;;;;4925852;29;20224;-66
2024/03/18 10:43:06;;;;;;;12.37;6.27;;;20.60;99.90;;;;;;4936669;28;20360;-66
2024/03/18 10:45:36;;;;;;;13.77;6.70;;;20.70;1.00;;;;;;4909678;29;20688;-66
2024/03/18 10:48:05;;;;;;;13.97;6.90;;;20.70;61.90;;;;;;4921340;29;20237;-67
2024/03/18 10:50:33;;;;;;;15.57;6.85;;;21.40;99.90;;;;;;4938225;28;20233;-66
2024/03/18 10:53:01;;;;;;;10.13;5.38;;;22.10;1.00;;;;;;4927339;29;20299;-66
2024/03/18 10:55:30;;;;;;;7.63;4.35;;;22.50;1.00;;;;;;4923847;29;20314;-66
2024/03/18 10:58:00;;;;;;;10.95;4.47;;;22.90;1.40;;;;;;4924753;29;20600;-66
2024/03/18 11:00:29;;;;;;;12.70;4.97;;;22.90;30.50;;;;;;4925240;29;20224;-66
2024/03/18 11:02:58;;;;;;;12.07;4.57;;;23.30;99.90;;;;;;4924490;29;20237;-66
2024/03/18 11:05:28;;;;;;;15.07;5.35;;;23.00;99.90;;;;;;4925145;29;20219;-65
2024/03/18 11:07:56;;;;;;;13.53;5.60;;;21.60;99.90;;;;;;4930938;29;20319;-65
2024/03/18 11:10:24;;;;;;;14.63;5.33;;;20.30;99.90;;;;;;4923240;29;20217;-65
2024/03/18 11:12:51;;;;;;;7.70;4.60;;;19.50;1.00;;;;;;4930283;29;20317;-65
2024/03/18 11:15:20;;;;;;;12.30;4.90;;;19.70;99.90;;;;;;4930096;29;20239;-65
2024/03/18 11:17:49;;;;;;;11.07;4.60;;;20.00;99.90;;;;;;4926807;29;20773;-65
2024/03/18 11:20:18;;;;;;;12.00;4.50;;;20.80;1.00;;;;;;4914764;29;20568;-65
2024/03/18 11:22:47;;;;;;;15.30;5.00;;;20.70;99.90;;;;;;4933229;29;20241;-65
2024/03/18 11:25:19;;;;;;;8.90;4.57;;;20.00;99.90;;;;;;4928547;29;20330;-65
2024/03/18 11:27:49;;;;;;;8.73;4.57;;;19.20;1.00;;;;;;4921492;29;20761;-65
2024/03/18 11:30:29;;;;;;;16.13;4.97;;;19.00;1.00;;;;;;4925552;29;20228;-65
2024/03/18 11:32:57;;;;;;;6.70;3.87;;;19.00;1.00;;;;;;4929344;29;20767;-65
2024/03/18 11:35:25;;;;;;;10.90;4.03;;;19.00;99.90;;;;;;4924263;29;20245;-65
2024/03/18 11:37:52;;;;;;;16.30;4.40;;;18.90;1.00;;;;;;4939818;28;20220;-65
2024/03/18 11:40:21;;;;;;;13.73;4.67;;;18.40;1.00;;;;;;4927616;29;20595;-65
2024/03/18 11:42:50;;;;;;;12.97;4.50;;;17.90;1.00;;;;;;4929236;29;20661;-65
2024/03/18 11:45:19;;;;;;;10.67;4.13;;;17.70;1.00;;;;;;4914307;29;20300;-65
2024/03/18 11:47:48;;;;;;;10.57;4.13;;;17.50;1.00;;;;;;4940307;28;20693;-65
2024/03/18 11:50:16;;;;;;;13.47;3.93;;;17.40;1.00;;;;;;4926309;29;20297;-65
2024/03/18 11:52:44;;;;;;;12.23;4.27;;;17.40;1.00;;;;;;4905152;29;20239;-65
2024/03/18 11:55:15;;;;;;;11.50;3.70;;;17.40;1.00;;;;;;4931132;29;20228;-64
2024/03/18 11:57:43;;;;;;;13.43;3.83;;;17.50;1.00;;;;;;4919673;29;20240;-64
2024/03/18 12:00:12;;;;;;;9.53;4.10;;;17.40;1.00;;;;;;4927046;29;20582;-64
2024/03/18 12:02:43;;;;;;;11.23;4.17;;;17.20;1.00;;;;;;4930392;29;20221;-64
2024/03/18 12:05:12;;;;;;;7.97;3.80;;;17.00;1.00;;;;;;4925518;29;20363;-65
2024/03/18 12:07:40;;;;;;;13.33;4.50;;;17.10;1.00;;;;;;4929602;29;20219;-64
2024/03/18 12:10:09;;;;;;;8.60;4.50;;;17.20;1.00;;;;;;4927252;29;20287;-65
2024/03/18 12:12:38;;;;;;;8.60;4.70;;;17.20;1.00;;;;;;4929116;29;20994;-65
2024/03/18 12:15:07;;;;;;;8.10;4.63;;;17.00;1.00;;;;;;4923236;29;20233;-65
2024/03/18 12:17:35;;;;;;;5.50;4.17;;;16.90;1.00;;;;;;4924933;29;20343;-65
2024/03/18 12:20:03;;;;;;;6.83;4.63;;;16.80;1.00;;;;;;4914291;29;20357;-65
2024/03/18 12:22:34;;;;;;;7.97;4.50;;;16.70;1.00;;;;;;4929373;29;20228;-65
2024/03/18 12:30:35;;;;;;;6.37;4.37;;;16.30;1.00;;;;;;4925710;29;20235;-65
2024/03/18 12:33:06;;;;;;;6.90;3.83;;;16.30;1.00;;;;;;4924253;29;20228;-65
2024/03/18 12:35:33;;;;;;;6.27;3.50;;;16.30;1.00;;;;;;4924721;29;20269;-64
2024/03/18 12:38:04;;;;;;;4.27;3.47;;;16.30;1.00;;;;;;4923291;29;20218;-65
2024/03/18 12:40:31;;;;;;;4.97;3.77;;;16.50;1.00;;;;;;4928098;29;20235;-65
2024/03/18 12:42:59;;;;;;;5.87;4.20;;;16.50;1.00;;;;;;4926729;29;20243;-65